Seapride — 9HA3272 — position and weather

sailwx.info

Track history (hours):
 
Tides and Currents Weather Stations Pressure Air Temp Water Temp Dewpoint Dewpoint Depression Visibility Wind Speed Wind Dir Waves Ship Positions

Seapride

Last reported at 2017-Nov-15 10:24 UTC. Time now 2017-Nov-24 05:40 UTC.
Position N 48°59' W 006°09'.
Warning: this ship's position is 8 days out of date.

Length 183 m; draft 12 m.

Type: Ship (hazmat cat A). MMSI: 229365000.

Date/timePositionNaut miles runAvg speedWind from/ knotsBaromVisibWave heightAir tempDewpointWater temp
2017-Nov-15 10:24N 48°59' W 006°09'11012.7
2017-Nov-15 01:44N 49°45' W 003°36'712.2
2017-Nov-15 01:08N 49°48' W 003°26'312.8
2017-Nov-15 00:54N 49°49' W 003°22'1113.4
2017-Nov-15 00:05N 49°55' W 003°07'113.9
2017-Nov-15 00:00N 49°55' W 003°06'714.0
2017-Nov-14 23:31N 49°59' W 002°56'714.4
2017-Nov-14 23:01N 50°01' W 002°46'814.6
2017-Nov-14 22:29N 50°03' W 002°34'2514.1
2017-Nov-14 20:43N 50°09' W 001°57'312.8
2017-Nov-14 20:30N 50°10' W 001°53'612.3
2017-Nov-14 20:00N 50°11' W 001°43'611.7
2017-Nov-14 19:30N 50°13' W 001°35'611.2
2017-Nov-14 19:00N 50°15' W 001°26'510.6
2017-Nov-14 18:30N 50°16' W 001°18'510.1
2017-Nov-14 18:00N 50°17' W 001°11'3010.5
2017-Nov-14 15:08N 50°25' W 000°25'212.0
2017-Nov-14 15:00N 50°26' W 000°23'612.5
2017-Nov-14 14:30N 50°27' W 000°13'713.3
2017-Nov-14 14:00N 50°29' W 000°03'713.6
2017-Nov-14 13:30N 50°31' E 000°07'713.8
2017-Nov-14 13:01N 50°32' E 000°18'713.8
2017-Nov-14 12:30N 50°34' E 000°28'713.6
2017-Nov-14 12:00N 50°38' E 000°38'713.4
2017-Nov-14 11:30N 50°41' E 000°47'612.9
2017-Nov-14 11:00N 50°45' E 000°55'612.0
2017-Nov-14 10:30N 50°48' E 001°03'611.3
2017-Nov-14 10:01N 50°52' E 001°09'610.8
2017-Nov-14 09:28N 50°56' E 001°15'510.1
2017-Nov-14 09:00N 51°00' E 001°20'510.2
2017-Nov-14 08:31N 51°04' E 001°26'510.9
2017-Nov-14 08:00N 51°07' E 001°33'611.3
2017-Nov-14 07:31N 51°11' E 001°40'611.7
2017-Nov-14 07:00N 51°15' E 001°46'612.1
2017-Nov-14 06:30N 51°20' E 001°51'612.8
2017-Nov-14 06:00N 51°26' E 001°56'714.3
2017-Nov-14 05:31N 51°31' E 002°03'714.3
2017-Nov-14 05:01N 51°37' E 002°11'714.2
2017-Nov-14 04:30N 51°42' E 002°19'1913.4
2017-Nov-14 03:05N 51°58' E 002°34'1013.0
2017-Nov-14 02:17N 52°09' E 002°37'1312.1
2017-Nov-14 01:12N 52°20' E 002°47'211.9
2017-Nov-14 01:00N 52°22' E 002°50'611.1
2017-Nov-14 00:26N 52°24' E 002°59'612.0
2017-Nov-13 23:59N 52°26' E 003°08'611.7
2017-Nov-13 23:30N 52°27' E 003°17'610.9
2017-Nov-13 22:59N 52°25' E 003°26'511.5
2017-Nov-13 22:31N 52°27' E 003°34'611.5
2017-Nov-13 21:59N 52°29' E 003°44'41 2.0
2017-Nov-13 01:58N 52°25' E 004°50'0 0.0
2017-Nov-13 01:22N 52°25' E 004°50'0 0.0
2017-Nov-13 00:52N 52°25' E 004°50'0 0.0
2017-Nov-13 00:22N 52°25' E 004°50'0 0.0
2017-Nov-12 23:58N 52°25' E 004°50'0 0.0
2017-Nov-12 23:28N 52°25' E 004°50'0 0.0
2017-Nov-12 22:58N 52°25' E 004°50'0 0.0
2017-Nov-12 22:28N 52°25' E 004°50'0 0.0
2017-Nov-12 21:58N 52°25' E 004°50'0 0.0
2017-Nov-12 21:28N 52°25' E 004°50'0 0.0
2017-Nov-12 20:58N 52°25' E 004°50'0 0.0
2017-Nov-12 20:28N 52°25' E 004°50'0 0.0
2017-Nov-12 19:58N 52°25' E 004°50'0 0.0
2017-Nov-12 19:28N 52°25' E 004°50'0 0.0
2017-Nov-12 18:58N 52°25' E 004°50'0 0.0
2017-Nov-12 18:25N 52°25' E 004°50'0 0.0
2017-Nov-12 17:58N 52°25' E 004°50'0 0.0
2017-Nov-12 17:28N 52°25' E 004°50'0 0.0
2017-Nov-12 16:58N 52°25' E 004°50'0 0.0
2017-Nov-12 16:25N 52°25' E 004°50'0 0.0
2017-Nov-12 15:58N 52°25' E 004°50'0 0.0
2017-Nov-12 15:22N 52°25' E 004°50'0 0.0
2017-Nov-12 14:58N 52°25' E 004°50'0 0.0
2017-Nov-12 14:25N 52°25' E 004°50'0 0.0
2017-Nov-12 13:58N 52°25' E 004°50'0 0.0
2017-Nov-12 13:22N 52°25' E 004°50'0 0.0
2017-Nov-12 12:37N 52°25' E 004°50'0 0.0
2017-Nov-12 12:25N 52°25' E 004°50'0 0.0
2017-Nov-12 11:46N 52°25' E 004°50'0 0.0
2017-Nov-12 11:28N 52°25' E 004°50'0 0.0
2017-Nov-12 10:58N 52°25' E 004°50'0 0.0
2017-Nov-12 10:25N 52°25' E 004°50'0 0.0
2017-Nov-12 09:55N 52°25' E 004°50'0 0.0
2017-Nov-12 09:28N 52°25' E 004°50'0 0.0
2017-Nov-12 08:58N 52°25' E 004°50'0 0.0
2017-Nov-12 08:25N 52°25' E 004°50'0 0.0
2017-Nov-12 07:55N 52°25' E 004°50'0 0.0
2017-Nov-12 07:22N 52°25' E 004°50'0 0.0
2017-Nov-12 06:58N 52°25' E 004°50'0 0.0
2017-Nov-12 06:28N 52°25' E 004°50'0 0.0
2017-Nov-12 05:58N 52°25' E 004°50'0 0.0
2017-Nov-12 05:28N 52°25' E 004°50'0 0.0
2017-Nov-12 04:58N 52°25' E 004°50'0 0.0
2017-Nov-12 04:28N 52°25' E 004°50'0 0.0
2017-Nov-12 03:58N 52°25' E 004°50'0 0.0
2017-Nov-12 03:28N 52°25' E 004°50'0 0.0
2017-Nov-12 02:52N 52°25' E 004°50'0 0.0
2017-Nov-12 02:28N 52°25' E 004°50'0 0.0
2017-Nov-12 01:58N 52°25' E 004°50'0 0.0
2017-Nov-12 01:28N 52°25' E 004°50'0 0.0
2017-Nov-12 00:55N 52°25' E 004°50'0 0.0
2017-Nov-12 00:28N 52°25' E 004°50'0 0.0
2017-Nov-11 23:58N 52°25' E 004°50'0 0.0
2017-Nov-11 23:28N 52°25' E 004°50'0 0.0
2017-Nov-11 22:58N 52°25' E 004°50'0 0.0
2017-Nov-11 22:25N 52°25' E 004°50'0 0.0
2017-Nov-11 21:58N 52°25' E 004°50'0 0.0
2017-Nov-11 21:28N 52°25' E 004°50'0 0.0
2017-Nov-11 20:52N 52°25' E 004°50'0 0.0
2017-Nov-11 20:28N 52°25' E 004°50'0 0.0
2017-Nov-11 19:58N 52°25' E 004°50'0 0.0
2017-Nov-11 19:28N 52°25' E 004°50'0 0.0
2017-Nov-11 18:58N 52°25' E 004°50'0 0.0
2017-Nov-11 18:25N 52°25' E 004°50'0 0.0
2017-Nov-11 17:58N 52°25' E 004°50'0 0.0
2017-Nov-11 17:28N 52°25' E 004°50'0 0.0
2017-Nov-11 16:52N 52°25' E 004°50'0 0.0
2017-Nov-11 16:28N 52°25' E 004°50'0 0.0
2017-Nov-11 15:58N 52°25' E 004°50'0 0.0
2017-Nov-11 15:28N 52°25' E 004°50'0 0.0
2017-Nov-11 14:58N 52°25' E 004°50'0 0.0
2017-Nov-11 14:22N 52°25' E 004°50'0 0.0
2017-Nov-11 13:58N 52°25' E 004°50'0 0.0
2017-Nov-11 13:28N 52°25' E 004°50'0 0.0
2017-Nov-11 12:58N 52°25' E 004°50'0 0.0
2017-Nov-11 12:28N 52°25' E 004°50'0 0.0
2017-Nov-11 11:58N 52°25' E 004°50'0 0.0
2017-Nov-11 11:22N 52°25' E 004°50'0 0.0
2017-Nov-11 10:58N 52°25' E 004°50'0 0.0
2017-Nov-11 10:28N 52°25' E 004°50'0 0.0
2017-Nov-11 09:52N 52°25' E 004°50'0 0.0
2017-Nov-11 09:28N 52°25' E 004°50'0 0.0
2017-Nov-11 08:58N 52°25' E 004°50'0 0.0
2017-Nov-11 08:28N 52°25' E 004°50'0 0.0
2017-Nov-11 07:55N 52°25' E 004°50'0 0.0
2017-Nov-11 07:25N 52°25' E 004°50'0 0.0
2017-Nov-11 06:58N 52°25' E 004°50'0 0.0
2017-Nov-11 06:28N 52°25' E 004°50'0 0.0
2017-Nov-11 05:58N 52°25' E 004°50'0 0.0
2017-Nov-11 05:28N 52°25' E 004°50'0 0.0
2017-Nov-11 04:58N 52°25' E 004°50'0 0.0
2017-Nov-11 04:25N 52°25' E 004°50'0 0.0
2017-Nov-11 03:58N 52°25' E 004°50'0 0.0
2017-Nov-11 03:28N 52°25' E 004°50'0 0.0
2017-Nov-11 02:58N 52°25' E 004°50'0 0.0
2017-Nov-11 02:28N 52°25' E 004°50'0 0.0
2017-Nov-11 01:58N 52°25' E 004°50'0 0.0
2017-Nov-11 01:28N 52°25' E 004°50'0 0.0
2017-Nov-11 00:58N 52°25' E 004°50'0 0.0
2017-Nov-11 00:28N 52°25' E 004°50'0 0.0
2017-Nov-10 23:58N 52°25' E 004°50'0 0.0
2017-Nov-10 23:28N 52°25' E 004°50'0 0.0
2017-Nov-10 22:58N 52°25' E 004°50'0 0.0
2017-Nov-10 22:28N 52°25' E 004°50'0 0.0
2017-Nov-10 21:58N 52°25' E 004°50'0 0.0
2017-Nov-10 21:25N 52°25' E 004°50'0 0.0
2017-Nov-10 20:58N 52°25' E 004°50'0 0.0
2017-Nov-10 20:25N 52°25' E 004°50'0 0.0
2017-Nov-10 19:55N 52°25' E 004°50'0 0.0
2017-Nov-10 19:28N 52°25' E 004°50'0 0.0
2017-Nov-10 18:55N 52°25' E 004°50'0 0.0
2017-Nov-10 18:28N 52°25' E 004°50'0 0.0
2017-Nov-10 17:58N 52°25' E 004°50'0 0.0
2017-Nov-10 17:28N 52°25' E 004°50'0 0.0
2017-Nov-10 16:58N 52°25' E 004°50'0 0.0
2017-Nov-10 16:28N 52°25' E 004°50'0 0.0
2017-Nov-10 15:58N 52°25' E 004°50'0 0.0
2017-Nov-10 15:25N 52°25' E 004°50'0 0.0
2017-Nov-10 14:58N 52°25' E 004°50'0 0.0
2017-Nov-10 14:28N 52°25' E 004°50'0 0.0
2017-Nov-10 13:58N 52°25' E 004°50'0 0.0
2017-Nov-10 13:28N 52°25' E 004°50'0 0.0
2017-Nov-10 12:52N 52°25' E 004°50'0 0.0
2017-Nov-10 12:25N 52°25' E 004°50'0 0.0
2017-Nov-10 11:49N 52°25' E 004°50'0 0.0
2017-Nov-10 11:16N 52°25' E 004°50'0 0.0
2017-Nov-10 10:55N 52°25' E 004°50'0 0.0
2017-Nov-10 10:22N 52°25' E 004°50'0 0.0
2017-Nov-10 09:58N 52°25' E 004°50'0 0.0
2017-Nov-10 09:28N 52°25' E 004°50'0 0.0
2017-Nov-10 08:58N 52°25' E 004°50'0 0.0
2017-Nov-10 08:25N 52°25' E 004°50'0 0.0
2017-Nov-10 07:55N 52°25' E 004°50'0 0.0
2017-Nov-10 07:22N 52°25' E 004°50'0 0.0
2017-Nov-10 06:55N 52°25' E 004°50'0 0.0
2017-Nov-10 06:28N 52°25' E 004°50'0 0.0
2017-Nov-10 05:55N 52°25' E 004°50'0 0.0
2017-Nov-10 05:25N 52°25' E 004°50'0 0.0
2017-Nov-10 04:49N 52°25' E 004°50'0 0.0
2017-Nov-10 04:25N 52°25' E 004°50'0 0.0
2017-Nov-10 03:58N 52°25' E 004°50'0 0.0
2017-Nov-10 03:28N 52°25' E 004°50'0 0.0
2017-Nov-10 02:55N 52°25' E 004°50'0 0.0
2017-Nov-10 02:28N 52°25' E 004°50'0 0.0
2017-Nov-10 01:55N 52°25' E 004°50'0 0.0
2017-Nov-10 01:22N 52°25' E 004°50'0 0.0
2017-Nov-10 00:58N 52°25' E 004°50'0 0.0
2017-Nov-10 00:22N 52°25' E 004°50'0 0.0
2017-Nov-09 23:58N 52°25' E 004°50'0 0.0
2017-Nov-09 23:28N 52°25' E 004°50'0 0.0
2017-Nov-09 22:58N 52°25' E 004°50'0 0.0
2017-Nov-09 22:28N 52°25' E 004°50'0 0.0
2017-Nov-09 21:58N 52°25' E 004°50'0 0.0
2017-Nov-09 21:22N 52°25' E 004°50'0 0.0
2017-Nov-09 20:58N 52°25' E 004°50'0 0.0
2017-Nov-09 20:28N 52°25' E 004°50'0 0.0
2017-Nov-09 19:55N 52°25' E 004°50'0 0.0
2017-Nov-09 19:22N 52°25' E 004°50'0 0.0
2017-Nov-09 18:58N 52°25' E 004°50'0 0.0
2017-Nov-09 18:25N 52°25' E 004°50'0 0.0
2017-Nov-09 17:58N 52°25' E 004°50'0 0.0
2017-Nov-09 17:25N 52°25' E 004°50'0 0.0
2017-Nov-09 16:58N 52°25' E 004°50'0 0.0
2017-Nov-09 16:25N 52°25' E 004°50'0 0.0
2017-Nov-09 15:58N 52°25' E 004°50'0 0.0
2017-Nov-09 15:25N 52°25' E 004°50'0 0.0
2017-Nov-09 14:58N 52°25' E 004°50'0 0.0
2017-Nov-09 14:28N 52°25' E 004°50'0 0.0
2017-Nov-09 13:58N 52°25' E 004°50'0 0.0
2017-Nov-09 13:25N 52°25' E 004°50'0 0.0
2017-Nov-09 12:58N 52°25' E 004°50'0 0.0
2017-Nov-09 12:28N 52°25' E 004°50'0 0.0
2017-Nov-09 11:55N 52°25' E 004°50'0 0.0
2017-Nov-09 11:25N 52°25' E 004°50'0 0.0
2017-Nov-09 10:55N 52°25' E 004°50'0 0.0
2017-Nov-09 10:25N 52°25' E 004°50'0 0.0
2017-Nov-09 09:55N 52°25' E 004°50'0 0.0
2017-Nov-09 09:28N 52°25' E 004°50'0 0.0
2017-Nov-09 08:55N 52°25' E 004°50'0 0.0
2017-Nov-09 08:25N 52°25' E 004°50'0 0.0
2017-Nov-09 07:52N 52°25' E 004°50'0 0.0
2017-Nov-09 07:28N 52°25' E 004°50'0 0.0
2017-Nov-09 06:58N 52°25' E 004°50'0 0.0
2017-Nov-09 06:25N 52°25' E 004°50'0 0.0
2017-Nov-09 05:58N 52°25' E 004°50'0 0.0
2017-Nov-09 05:25N 52°25' E 004°50'0 0.0
2017-Nov-09 04:58N 52°25' E 004°50'0 0.0
2017-Nov-09 04:28N 52°25' E 004°50'0 0.0
2017-Nov-09 03:58N 52°25' E 004°50'0 0.0
2017-Nov-09 03:25N 52°25' E 004°50'0 0.0
2017-Nov-09 02:58N 52°25' E 004°50'0 0.0
2017-Nov-09 02:25N 52°25' E 004°50'0 0.0
2017-Nov-09 01:58N 52°25' E 004°50'0 0.0
2017-Nov-09 01:22N 52°25' E 004°50'0 0.0
2017-Nov-09 00:58N 52°25' E 004°50'0 0.0
2017-Nov-09 00:25N 52°25' E 004°50'0 0.0
2017-Nov-08 23:58N 52°25' E 004°50'0 0.0
2017-Nov-08 23:28N 52°25' E 004°50'0 0.0
2017-Nov-08 22:58N 52°25' E 004°50'0 0.0
2017-Nov-08 22:28N 52°25' E 004°50'0 0.0
2017-Nov-08 21:58N 52°25' E 004°50'0 0.0
2017-Nov-08 21:28N 52°25' E 004°50'0 0.0
2017-Nov-08 20:58N 52°25' E 004°50'0 0.0
2017-Nov-08 20:25N 52°25' E 004°50'0 0.0
2017-Nov-08 19:58N 52°25' E 004°50'0 0.0
2017-Nov-08 19:28N 52°25' E 004°50'0 0.0
2017-Nov-08 18:58N 52°25' E 004°50'0 0.0
2017-Nov-08 18:28N 52°25' E 004°50'0 0.0
2017-Nov-08 17:58N 52°25' E 004°50'0 0.0
2017-Nov-08 17:25N 52°25' E 004°50'0 0.0
2017-Nov-08 16:58N 52°25' E 004°50'0 0.0
2017-Nov-08 16:25N 52°25' E 004°50'0 0.0
2017-Nov-08 15:55N 52°25' E 004°50'0 0.0
2017-Nov-08 15:25N 52°25' E 004°50'0 0.0
2017-Nov-08 14:55N 52°25' E 004°50'0 0.0
2017-Nov-08 14:28N 52°25' E 004°50'0 0.0
2017-Nov-08 13:55N 52°25' E 004°50'0 0.0
2017-Nov-08 13:28N 52°25' E 004°50'0 0.0
2017-Nov-08 12:58N 52°25' E 004°50'0 0.0
2017-Nov-08 12:28N 52°25' E 004°50'0 0.0
2017-Nov-08 11:58N 52°25' E 004°50'0 0.0
2017-Nov-08 11:28N 52°25' E 004°50'0 0.0
2017-Nov-08 10:58N 52°25' E 004°50'0 0.0
2017-Nov-08 10:25N 52°25' E 004°50'0 0.0
2017-Nov-08 09:58N 52°25' E 004°50'0 0.0
2017-Nov-08 09:19N 52°25' E 004°50'0 0.0
2017-Nov-08 08:58N 52°25' E 004°50'0 0.0
2017-Nov-08 08:28N 52°25' E 004°50'0 0.0
2017-Nov-08 07:55N 52°25' E 004°50'0 0.0
2017-Nov-08 07:28N 52°25' E 004°50'0 0.0
2017-Nov-08 06:59N 52°25' E 004°50'0 1.0
2017-Nov-08 06:31N 52°25' E 004°50'3 6.8
2017-Nov-08 06:01N 52°26' E 004°45'4 8.6
2017-Nov-08 05:31N 52°28' E 004°39'1 2.8
2017-Nov-08 05:00N 52°28' E 004°36'1 2.1
2017-Nov-08 04:30N 52°28' E 004°35'3 5.7
2017-Nov-08 04:00N 52°28' E 004°30'4 7.0
2017-Nov-08 03:30N 52°29' E 004°24'4 8.1
2017-Nov-08 03:00N 52°28' E 004°18'5 9.3
2017-Nov-08 02:30N 52°29' E 004°10'5 9.1
2017-Nov-08 02:01N 52°28' E 004°03'4 8.1
2017-Nov-08 01:30N 52°26' E 003°57'0 0.6
2017-Nov-08 00:55N 52°25' E 003°57'0 0.0
2017-Nov-08 00:22N 52°25' E 003°57'0 0.0
2017-Nov-07 23:58N 52°25' E 003°57'0 0.0
2017-Nov-07 23:19N 52°25' E 003°57'0 0.0
2017-Nov-07 22:58N 52°25' E 003°57'0 0.0
2017-Nov-07 22:04N 52°25' E 003°57'0 0.1
2017-Nov-07 21:52N 52°25' E 003°57'0 0.2
2017-Nov-07 21:25N 52°25' E 003°57'0 0.2
2017-Nov-07 20:28N 52°26' E 003°57'0 0.0
2017-Nov-07 19:49N 52°26' E 003°57'0 0.0
2017-Nov-07 19:28N 52°26' E 003°57'0 0.0
2017-Nov-07 18:55N 52°26' E 003°57'0 0.0
2017-Nov-07 18:28N 52°26' E 003°57'0 0.0
2017-Nov-07 17:58N 52°26' E 003°57'0 0.0
2017-Nov-07 17:25N 52°26' E 003°57'0 0.0
2017-Nov-07 16:52N 52°26' E 003°57'0 0.0
2017-Nov-07 14:10N 52°26' E 003°57'0 0.0
2017-Nov-07 13:52N 52°26' E 003°57'0 0.2
2017-Nov-07 13:22N 52°26' E 003°57'0 0.1
2017-Nov-07 12:58N 52°25' E 003°57'0 0.0
2017-Nov-07 12:13N 52°25' E 003°57'0 0.0
2017-Nov-07 11:52N 52°25' E 003°57'0 0.0
2017-Nov-07 11:22N 52°25' E 003°57'0 0.0
2017-Nov-07 10:58N 52°25' E 003°57'0 0.0
2017-Nov-07 10:22N 52°25' E 003°57'0 0.0
2017-Nov-07 09:58N 52°25' E 003°57'0 0.1
2017-Nov-07 07:58N 52°26' E 003°57'0 0.0
2017-Nov-07 06:40N 52°26' E 003°57'0 0.0
2017-Nov-07 05:46N 52°26' E 003°57'0 0.0
2017-Nov-07 05:28N 52°26' E 003°57'0 0.0
2017-Nov-07 04:58N 52°26' E 003°57'0 0.0
2017-Nov-07 04:28N 52°26' E 003°57'0 0.0
2017-Nov-07 03:49N 52°26' E 003°57'0 0.1
2017-Nov-07 03:22N 52°26' E 003°57'0 0.0
2017-Nov-07 02:52N 52°26' E 003°57'0 0.1
2017-Nov-07 02:28N 52°26' E 003°57'0 0.0
2017-Nov-07 01:46N 52°26' E 003°57'0 0.2
2017-Nov-07 01:28N 52°26' E 003°57'0 0.2
2017-Nov-07 00:58N 52°25' E 003°57'0 0.1
2017-Nov-07 00:28N 52°25' E 003°57'0 0.0
2017-Nov-06 23:58N 52°25' E 003°57'0 0.0
2017-Nov-06 23:28N 52°25' E 003°57'0 0.0
2017-Nov-06 22:58N 52°25' E 003°57'0 0.0
2017-Nov-06 22:28N 52°25' E 003°57'0 0.1
2017-Nov-06 21:58N 52°25' E 003°57'0 0.0
2017-Nov-06 21:22N 52°25' E 003°57'0 0.0
2017-Nov-06 20:58N 52°25' E 003°57'0 0.1
2017-Nov-06 20:04N 52°25' E 003°57'70 3.1
2017-Nov-05 21:08N 51°40' E 002°30'312.0
2017-Nov-05 20:54N 51°38' E 002°27'712.0
2017-Nov-05 20:18N 51°33' E 002°19'412.0
2017-Nov-05 19:59N 51°30' E 002°15'612.0
2017-Nov-05 19:28N 51°24' E 002°11'612.5
2017-Nov-05 19:00N 51°19' E 002°08'612.0
2017-Nov-05 18:30N 51°14' E 002°03'612.8
2017-Nov-05 18:00N 51°11' E 001°54'612.6
2017-Nov-05 17:30N 51°07' E 001°46'612.4
2017-Nov-05 17:00N 51°02' E 001°39'612.2
2017-Nov-05 16:30N 50°58' E 001°33'612.3
2017-Nov-05 16:00N 50°53' E 001°27'712.9
2017-Nov-05 15:28N 50°46' E 001°24'5012.3
2017-Nov-05 11:25N 50°23' E 000°14'513.0
2017-Nov-05 11:00N 50°21' E 000°06'813.1
2017-Nov-05 10:26N 50°18' W 000°05'  
Track history (hours):
 
Tides and Currents Weather Stations Pressure Air Temp Water Temp Dewpoint Dewpoint Depression Visibility Wind Speed Wind Dir Waves Ship Positions

Seapride

Last reported at 2017-Nov-15 10:24 UTC. Time now 2017-Nov-24 05:40 UTC.
Position N 48°59' W 006°09'.
Warning: this ship's position is 8 days out of date.

Length 183 m; draft 12 m.

Type: Ship (hazmat cat A). MMSI: 229365000.

Date/timePositionNaut miles runAvg speedWind from/ knotsBaromVisibWave heightAir tempDewpointWater temp
2017-Nov-15 10:24N 48°59' W 006°09'11012.7
2017-Nov-15 01:44N 49°45' W 003°36'712.2
2017-Nov-15 01:08N 49°48' W 003°26'312.8
2017-Nov-15 00:54N 49°49' W 003°22'1113.4
2017-Nov-15 00:05N 49°55' W 003°07'113.9
2017-Nov-15 00:00N 49°55' W 003°06'714.0
2017-Nov-14 23:31N 49°59' W 002°56'714.4
2017-Nov-14 23:01N 50°01' W 002°46'814.6
2017-Nov-14 22:29N 50°03' W 002°34'2514.1
2017-Nov-14 20:43N 50°09' W 001°57'312.8
2017-Nov-14 20:30N 50°10' W 001°53'612.3
2017-Nov-14 20:00N 50°11' W 001°43'611.7
2017-Nov-14 19:30N 50°13' W 001°35'611.2
2017-Nov-14 19:00N 50°15' W 001°26'510.6
2017-Nov-14 18:30N 50°16' W 001°18'510.1
2017-Nov-14 18:00N 50°17' W 001°11'3010.5
2017-Nov-14 15:08N 50°25' W 000°25'212.0
2017-Nov-14 15:00N 50°26' W 000°23'612.5
2017-Nov-14 14:30N 50°27' W 000°13'713.3
2017-Nov-14 14:00N 50°29' W 000°03'713.6
2017-Nov-14 13:30N 50°31' E 000°07'713.8
2017-Nov-14 13:01N 50°32' E 000°18'713.8
2017-Nov-14 12:30N 50°34' E 000°28'713.6
2017-Nov-14 12:00N 50°38' E 000°38'713.4
2017-Nov-14 11:30N 50°41' E 000°47'612.9
2017-Nov-14 11:00N 50°45' E 000°55'612.0
2017-Nov-14 10:30N 50°48' E 001°03'611.3
2017-Nov-14 10:01N 50°52' E 001°09'610.8
2017-Nov-14 09:28N 50°56' E 001°15'510.1
2017-Nov-14 09:00N 51°00' E 001°20'510.2
2017-Nov-14 08:31N 51°04' E 001°26'510.9
2017-Nov-14 08:00N 51°07' E 001°33'611.3
2017-Nov-14 07:31N 51°11' E 001°40'611.7
2017-Nov-14 07:00N 51°15' E 001°46'612.1
2017-Nov-14 06:30N 51°20' E 001°51'612.8
2017-Nov-14 06:00N 51°26' E 001°56'714.3
2017-Nov-14 05:31N 51°31' E 002°03'714.3
2017-Nov-14 05:01N 51°37' E 002°11'714.2
2017-Nov-14 04:30N 51°42' E 002°19'1913.4
2017-Nov-14 03:05N 51°58' E 002°34'1013.0
2017-Nov-14 02:17N 52°09' E 002°37'1312.1
2017-Nov-14 01:12N 52°20' E 002°47'211.9
2017-Nov-14 01:00N 52°22' E 002°50'611.1
2017-Nov-14 00:26N 52°24' E 002°59'612.0
2017-Nov-13 23:59N 52°26' E 003°08'611.7
2017-Nov-13 23:30N 52°27' E 003°17'610.9
2017-Nov-13 22:59N 52°25' E 003°26'511.5
2017-Nov-13 22:31N 52°27' E 003°34'611.5
2017-Nov-13 21:59N 52°29' E 003°44'41 2.0
2017-Nov-13 01:58N 52°25' E 004°50'0 0.0
2017-Nov-13 01:22N 52°25' E 004°50'0 0.0
2017-Nov-13 00:52N 52°25' E 004°50'0 0.0
2017-Nov-13 00:22N 52°25' E 004°50'0 0.0
2017-Nov-12 23:58N 52°25' E 004°50'0 0.0
2017-Nov-12 23:28N 52°25' E 004°50'0 0.0
2017-Nov-12 22:58N 52°25' E 004°50'0 0.0
2017-Nov-12 22:28N 52°25' E 004°50'0 0.0
2017-Nov-12 21:58N 52°25' E 004°50'0 0.0
2017-Nov-12 21:28N 52°25' E 004°50'0 0.0
2017-Nov-12 20:58N 52°25' E 004°50'0 0.0
2017-Nov-12 20:28N 52°25' E 004°50'0 0.0
2017-Nov-12 19:58N 52°25' E 004°50'0 0.0
2017-Nov-12 19:28N 52°25' E 004°50'0 0.0
2017-Nov-12 18:58N 52°25' E 004°50'0 0.0
2017-Nov-12 18:25N 52°25' E 004°50'0 0.0
2017-Nov-12 17:58N 52°25' E 004°50'0 0.0
2017-Nov-12 17:28N 52°25' E 004°50'0 0.0
2017-Nov-12 16:58N 52°25' E 004°50'0 0.0
2017-Nov-12 16:25N 52°25' E 004°50'0 0.0
2017-Nov-12 15:58N 52°25' E 004°50'0 0.0
2017-Nov-12 15:22N 52°25' E 004°50'0 0.0
2017-Nov-12 14:58N 52°25' E 004°50'0 0.0
2017-Nov-12 14:25N 52°25' E 004°50'0 0.0
2017-Nov-12 13:58N 52°25' E 004°50'0 0.0
2017-Nov-12 13:22N 52°25' E 004°50'0 0.0
2017-Nov-12 12:37N 52°25' E 004°50'0 0.0
2017-Nov-12 12:25N 52°25' E 004°50'0 0.0
2017-Nov-12 11:46N 52°25' E 004°50'0 0.0
2017-Nov-12 11:28N 52°25' E 004°50'0 0.0
2017-Nov-12 10:58N 52°25' E 004°50'0 0.0
2017-Nov-12 10:25N 52°25' E 004°50'0 0.0
2017-Nov-12 09:55N 52°25' E 004°50'0 0.0
2017-Nov-12 09:28N 52°25' E 004°50'0 0.0
2017-Nov-12 08:58N 52°25' E 004°50'0 0.0
2017-Nov-12 08:25N 52°25' E 004°50'0 0.0
2017-Nov-12 07:55N 52°25' E 004°50'0 0.0
2017-Nov-12 07:22N 52°25' E 004°50'0 0.0
2017-Nov-12 06:58N 52°25' E 004°50'0 0.0
2017-Nov-12 06:28N 52°25' E 004°50'0 0.0
2017-Nov-12 05:58N 52°25' E 004°50'0 0.0
2017-Nov-12 05:28N 52°25' E 004°50'0 0.0
2017-Nov-12 04:58N 52°25' E 004°50'0 0.0
2017-Nov-12 04:28N 52°25' E 004°50'0 0.0
2017-Nov-12 03:58N 52°25' E 004°50'0 0.0
2017-Nov-12 03:28N 52°25' E 004°50'0 0.0
2017-Nov-12 02:52N 52°25' E 004°50'0 0.0
2017-Nov-12 02:28N 52°25' E 004°50'0 0.0
2017-Nov-12 01:58N 52°25' E 004°50'0 0.0
2017-Nov-12 01:28N 52°25' E 004°50'0 0.0
2017-Nov-12 00:55N 52°25' E 004°50'0 0.0
2017-Nov-12 00:28N 52°25' E 004°50'0 0.0
2017-Nov-11 23:58N 52°25' E 004°50'0 0.0
2017-Nov-11 23:28N 52°25' E 004°50'0 0.0
2017-Nov-11 22:58N 52°25' E 004°50'0 0.0
2017-Nov-11 22:25N 52°25' E 004°50'0 0.0
2017-Nov-11 21:58N 52°25' E 004°50'0 0.0
2017-Nov-11 21:28N 52°25' E 004°50'0 0.0
2017-Nov-11 20:52N 52°25' E 004°50'0 0.0
2017-Nov-11 20:28N 52°25' E 004°50'0 0.0
2017-Nov-11 19:58N 52°25' E 004°50'0 0.0
2017-Nov-11 19:28N 52°25' E 004°50'0 0.0
2017-Nov-11 18:58N 52°25' E 004°50'0 0.0
2017-Nov-11 18:25N 52°25' E 004°50'0 0.0
2017-Nov-11 17:58N 52°25' E 004°50'0 0.0
2017-Nov-11 17:28N 52°25' E 004°50'0 0.0
2017-Nov-11 16:52N 52°25' E 004°50'0 0.0
2017-Nov-11 16:28N 52°25' E 004°50'0 0.0
2017-Nov-11 15:58N 52°25' E 004°50'0 0.0
2017-Nov-11 15:28N 52°25' E 004°50'0 0.0
2017-Nov-11 14:58N 52°25' E 004°50'0 0.0
2017-Nov-11 14:22N 52°25' E 004°50'0 0.0
2017-Nov-11 13:58N 52°25' E 004°50'0 0.0
2017-Nov-11 13:28N 52°25' E 004°50'0 0.0
2017-Nov-11 12:58N 52°25' E 004°50'0 0.0
2017-Nov-11 12:28N 52°25' E 004°50'0 0.0
2017-Nov-11 11:58N 52°25' E 004°50'0 0.0
2017-Nov-11 11:22N 52°25' E 004°50'0 0.0
2017-Nov-11 10:58N 52°25' E 004°50'0 0.0
2017-Nov-11 10:28N 52°25' E 004°50'0 0.0
2017-Nov-11 09:52N 52°25' E 004°50'0 0.0
2017-Nov-11 09:28N 52°25' E 004°50'0 0.0
2017-Nov-11 08:58N 52°25' E 004°50'0 0.0
2017-Nov-11 08:28N 52°25' E 004°50'0 0.0
2017-Nov-11 07:55N 52°25' E 004°50'0 0.0
2017-Nov-11 07:25N 52°25' E 004°50'0 0.0
2017-Nov-11 06:58N 52°25' E 004°50'0 0.0
2017-Nov-11 06:28N 52°25' E 004°50'0 0.0
2017-Nov-11 05:58N 52°25' E 004°50'0 0.0
2017-Nov-11 05:28N 52°25' E 004°50'0 0.0
2017-Nov-11 04:58N 52°25' E 004°50'0 0.0
2017-Nov-11 04:25N 52°25' E 004°50'0 0.0
2017-Nov-11 03:58N 52°25' E 004°50'0 0.0
2017-Nov-11 03:28N 52°25' E 004°50'0 0.0
2017-Nov-11 02:58N 52°25' E 004°50'0 0.0
2017-Nov-11 02:28N 52°25' E 004°50'0 0.0
2017-Nov-11 01:58N 52°25' E 004°50'0 0.0
2017-Nov-11 01:28N 52°25' E 004°50'0 0.0
2017-Nov-11 00:58N 52°25' E 004°50'0 0.0
2017-Nov-11 00:28N 52°25' E 004°50'0 0.0
2017-Nov-10 23:58N 52°25' E 004°50'0 0.0
2017-Nov-10 23:28N 52°25' E 004°50'0 0.0
2017-Nov-10 22:58N 52°25' E 004°50'0 0.0
2017-Nov-10 22:28N 52°25' E 004°50'0 0.0
2017-Nov-10 21:58N 52°25' E 004°50'0 0.0
2017-Nov-10 21:25N 52°25' E 004°50'0 0.0
2017-Nov-10 20:58N 52°25' E 004°50'0 0.0
2017-Nov-10 20:25N 52°25' E 004°50'0 0.0
2017-Nov-10 19:55N 52°25' E 004°50'0 0.0
2017-Nov-10 19:28N 52°25' E 004°50'0 0.0
2017-Nov-10 18:55N 52°25' E 004°50'0 0.0
2017-Nov-10 18:28N 52°25' E 004°50'0 0.0
2017-Nov-10 17:58N 52°25' E 004°50'0 0.0
2017-Nov-10 17:28N 52°25' E 004°50'0 0.0
2017-Nov-10 16:58N 52°25' E 004°50'0 0.0
2017-Nov-10 16:28N 52°25' E 004°50'0 0.0
2017-Nov-10 15:58N 52°25' E 004°50'0 0.0
2017-Nov-10 15:25N 52°25' E 004°50'0 0.0
2017-Nov-10 14:58N 52°25' E 004°50'0 0.0
2017-Nov-10 14:28N 52°25' E 004°50'0 0.0
2017-Nov-10 13:58N 52°25' E 004°50'0 0.0
2017-Nov-10 13:28N 52°25' E 004°50'0 0.0
2017-Nov-10 12:52N 52°25' E 004°50'0 0.0
2017-Nov-10 12:25N 52°25' E 004°50'0 0.0
2017-Nov-10 11:49N 52°25' E 004°50'0 0.0
2017-Nov-10 11:16N 52°25' E 004°50'0 0.0
2017-Nov-10 10:55N 52°25' E 004°50'0 0.0
2017-Nov-10 10:22N 52°25' E 004°50'0 0.0
2017-Nov-10 09:58N 52°25' E 004°50'0 0.0
2017-Nov-10 09:28N 52°25' E 004°50'0 0.0
2017-Nov-10 08:58N 52°25' E 004°50'0 0.0
2017-Nov-10 08:25N 52°25' E 004°50'0 0.0
2017-Nov-10 07:55N 52°25' E 004°50'0 0.0
2017-Nov-10 07:22N 52°25' E 004°50'0 0.0
2017-Nov-10 06:55N 52°25' E 004°50'0 0.0
2017-Nov-10 06:28N 52°25' E 004°50'0 0.0
2017-Nov-10 05:55N 52°25' E 004°50'0 0.0
2017-Nov-10 05:25N 52°25' E 004°50'0 0.0
2017-Nov-10 04:49N 52°25' E 004°50'0 0.0
2017-Nov-10 04:25N 52°25' E 004°50'0 0.0
2017-Nov-10 03:58N 52°25' E 004°50'0 0.0
2017-Nov-10 03:28N 52°25' E 004°50'0 0.0
2017-Nov-10 02:55N 52°25' E 004°50'0 0.0
2017-Nov-10 02:28N 52°25' E 004°50'0 0.0
2017-Nov-10 01:55N 52°25' E 004°50'0 0.0
2017-Nov-10 01:22N 52°25' E 004°50'0 0.0
2017-Nov-10 00:58N 52°25' E 004°50'0 0.0
2017-Nov-10 00:22N 52°25' E 004°50'0 0.0
2017-Nov-09 23:58N 52°25' E 004°50'0 0.0
2017-Nov-09 23:28N 52°25' E 004°50'0 0.0
2017-Nov-09 22:58N 52°25' E 004°50'0 0.0
2017-Nov-09 22:28N 52°25' E 004°50'0 0.0
2017-Nov-09 21:58N 52°25' E 004°50'0 0.0
2017-Nov-09 21:22N 52°25' E 004°50'0 0.0
2017-Nov-09 20:58N 52°25' E 004°50'0 0.0
2017-Nov-09 20:28N 52°25' E 004°50'0 0.0
2017-Nov-09 19:55N 52°25' E 004°50'0 0.0
2017-Nov-09 19:22N 52°25' E 004°50'0 0.0
2017-Nov-09 18:58N 52°25' E 004°50'0 0.0
2017-Nov-09 18:25N 52°25' E 004°50'0 0.0
2017-Nov-09 17:58N 52°25' E 004°50'0 0.0
2017-Nov-09 17:25N 52°25' E 004°50'0 0.0
2017-Nov-09 16:58N 52°25' E 004°50'0 0.0
2017-Nov-09 16:25N 52°25' E 004°50'0 0.0
2017-Nov-09 15:58N 52°25' E 004°50'0 0.0
2017-Nov-09 15:25N 52°25' E 004°50'0 0.0
2017-Nov-09 14:58N 52°25' E 004°50'0 0.0
2017-Nov-09 14:28N 52°25' E 004°50'0 0.0
2017-Nov-09 13:58N 52°25' E 004°50'0 0.0
2017-Nov-09 13:25N 52°25' E 004°50'0 0.0
2017-Nov-09 12:58N 52°25' E 004°50'0 0.0
2017-Nov-09 12:28N 52°25' E 004°50'0 0.0
2017-Nov-09 11:55N 52°25' E 004°50'0 0.0
2017-Nov-09 11:25N 52°25' E 004°50'0 0.0
2017-Nov-09 10:55N 52°25' E 004°50'0 0.0
2017-Nov-09 10:25N 52°25' E 004°50'0 0.0
2017-Nov-09 09:55N 52°25' E 004°50'0 0.0
2017-Nov-09 09:28N 52°25' E 004°50'0 0.0
2017-Nov-09 08:55N 52°25' E 004°50'0 0.0
2017-Nov-09 08:25N 52°25' E 004°50'0 0.0
2017-Nov-09 07:52N 52°25' E 004°50'0 0.0
2017-Nov-09 07:28N 52°25' E 004°50'0 0.0
2017-Nov-09 06:58N 52°25' E 004°50'0 0.0
2017-Nov-09 06:25N 52°25' E 004°50'0 0.0
2017-Nov-09 05:58N 52°25' E 004°50'0 0.0
2017-Nov-09 05:25N 52°25' E 004°50'0 0.0
2017-Nov-09 04:58N 52°25' E 004°50'0 0.0
2017-Nov-09 04:28N 52°25' E 004°50'0 0.0
2017-Nov-09 03:58N 52°25' E 004°50'0 0.0
2017-Nov-09 03:25N 52°25' E 004°50'0 0.0
2017-Nov-09 02:58N 52°25' E 004°50'0 0.0
2017-Nov-09 02:25N 52°25' E 004°50'0 0.0
2017-Nov-09 01:58N 52°25' E 004°50'0 0.0
2017-Nov-09 01:22N 52°25' E 004°50'0 0.0
2017-Nov-09 00:58N 52°25' E 004°50'0 0.0
2017-Nov-09 00:25N 52°25' E 004°50'0 0.0
2017-Nov-08 23:58N 52°25' E 004°50'0 0.0
2017-Nov-08 23:28N 52°25' E 004°50'0 0.0
2017-Nov-08 22:58N 52°25' E 004°50'0 0.0
2017-Nov-08 22:28N 52°25' E 004°50'0 0.0
2017-Nov-08 21:58N 52°25' E 004°50'0 0.0
2017-Nov-08 21:28N 52°25' E 004°50'0 0.0
2017-Nov-08 20:58N 52°25' E 004°50'0 0.0
2017-Nov-08 20:25N 52°25' E 004°50'0 0.0
2017-Nov-08 19:58N 52°25' E 004°50'0 0.0
2017-Nov-08 19:28N 52°25' E 004°50'0 0.0
2017-Nov-08 18:58N 52°25' E 004°50'0 0.0
2017-Nov-08 18:28N 52°25' E 004°50'0 0.0
2017-Nov-08 17:58N 52°25' E 004°50'0 0.0
2017-Nov-08 17:25N 52°25' E 004°50'0 0.0
2017-Nov-08 16:58N 52°25' E 004°50'0 0.0
2017-Nov-08 16:25N 52°25' E 004°50'0 0.0
2017-Nov-08 15:55N 52°25' E 004°50'0 0.0
2017-Nov-08 15:25N 52°25' E 004°50'0 0.0
2017-Nov-08 14:55N 52°25' E 004°50'0 0.0
2017-Nov-08 14:28N 52°25' E 004°50'0 0.0
2017-Nov-08 13:55N 52°25' E 004°50'0 0.0
2017-Nov-08 13:28N 52°25' E 004°50'0 0.0
2017-Nov-08 12:58N 52°25' E 004°50'0 0.0
2017-Nov-08 12:28N 52°25' E 004°50'0 0.0
2017-Nov-08 11:58N 52°25' E 004°50'0 0.0
2017-Nov-08 11:28N 52°25' E 004°50'0 0.0
2017-Nov-08 10:58N 52°25' E 004°50'0 0.0
2017-Nov-08 10:25N 52°25' E 004°50'0 0.0
2017-Nov-08 09:58N 52°25' E 004°50'0 0.0
2017-Nov-08 09:19N 52°25' E 004°50'0 0.0
2017-Nov-08 08:58N 52°25' E 004°50'0 0.0
2017-Nov-08 08:28N 52°25' E 004°50'0 0.0
2017-Nov-08 07:55N 52°25' E 004°50'0 0.0
2017-Nov-08 07:28N 52°25' E 004°50'0 0.0
2017-Nov-08 06:59N 52°25' E 004°50'0 1.0
2017-Nov-08 06:31N 52°25' E 004°50'3 6.8
2017-Nov-08 06:01N 52°26' E 004°45'4 8.6
2017-Nov-08 05:31N 52°28' E 004°39'1 2.8
2017-Nov-08 05:00N 52°28' E 004°36'1 2.1
2017-Nov-08 04:30N 52°28' E 004°35'3 5.7
2017-Nov-08 04:00N 52°28' E 004°30'4 7.0
2017-Nov-08 03:30N 52°29' E 004°24'4 8.1
2017-Nov-08 03:00N 52°28' E 004°18'5 9.3
2017-Nov-08 02:30N 52°29' E 004°10'5 9.1
2017-Nov-08 02:01N 52°28' E 004°03'4 8.1
2017-Nov-08 01:30N 52°26' E 003°57'0 0.6
2017-Nov-08 00:55N 52°25' E 003°57'0 0.0
2017-Nov-08 00:22N 52°25' E 003°57'0 0.0
2017-Nov-07 23:58N 52°25' E 003°57'0 0.0
2017-Nov-07 23:19N 52°25' E 003°57'0 0.0
2017-Nov-07 22:58N 52°25' E 003°57'0 0.0
2017-Nov-07 22:04N 52°25' E 003°57'0 0.1
2017-Nov-07 21:52N 52°25' E 003°57'0 0.2
2017-Nov-07 21:25N 52°25' E 003°57'0 0.2
2017-Nov-07 20:28N 52°26' E 003°57'0 0.0
2017-Nov-07 19:49N 52°26' E 003°57'0 0.0
2017-Nov-07 19:28N 52°26' E 003°57'0 0.0
2017-Nov-07 18:55N 52°26' E 003°57'0 0.0
2017-Nov-07 18:28N 52°26' E 003°57'0 0.0
2017-Nov-07 17:58N 52°26' E 003°57'0 0.0
2017-Nov-07 17:25N 52°26' E 003°57'0 0.0
2017-Nov-07 16:52N 52°26' E 003°57'0 0.0
2017-Nov-07 14:10N 52°26' E 003°57'0 0.0
2017-Nov-07 13:52N 52°26' E 003°57'0 0.2
2017-Nov-07 13:22N 52°26' E 003°57'0 0.1
2017-Nov-07 12:58N 52°25' E 003°57'0 0.0
2017-Nov-07 12:13N 52°25' E 003°57'0 0.0
2017-Nov-07 11:52N 52°25' E 003°57'0 0.0
2017-Nov-07 11:22N 52°25' E 003°57'0 0.0
2017-Nov-07 10:58N 52°25' E 003°57'0 0.0
2017-Nov-07 10:22N 52°25' E 003°57'0 0.0
2017-Nov-07 09:58N 52°25' E 003°57'0 0.1
2017-Nov-07 07:58N 52°26' E 003°57'0 0.0
2017-Nov-07 06:40N 52°26' E 003°57'0 0.0
2017-Nov-07 05:46N 52°26' E 003°57'0 0.0
2017-Nov-07 05:28N 52°26' E 003°57'0 0.0
2017-Nov-07 04:58N 52°26' E 003°57'0 0.0
2017-Nov-07 04:28N 52°26' E 003°57'0 0.0
2017-Nov-07 03:49N 52°26' E 003°57'0 0.1
2017-Nov-07 03:22N 52°26' E 003°57'0 0.0
2017-Nov-07 02:52N 52°26' E 003°57'0 0.1
2017-Nov-07 02:28N 52°26' E 003°57'0 0.0
2017-Nov-07 01:46N 52°26' E 003°57'0 0.2
2017-Nov-07 01:28N 52°26' E 003°57'0 0.2
2017-Nov-07 00:58N 52°25' E 003°57'0 0.1
2017-Nov-07 00:28N 52°25' E 003°57'0 0.0
2017-Nov-06 23:58N 52°25' E 003°57'0 0.0
2017-Nov-06 23:28N 52°25' E 003°57'0 0.0
2017-Nov-06 22:58N 52°25' E 003°57'0 0.0
2017-Nov-06 22:28N 52°25' E 003°57'0 0.1
2017-Nov-06 21:58N 52°25' E 003°57'0 0.0
2017-Nov-06 21:22N 52°25' E 003°57'0 0.0
2017-Nov-06 20:58N 52°25' E 003°57'0 0.1
2017-Nov-06 20:04N 52°25' E 003°57'70 3.1
2017-Nov-05 21:08N 51°40' E 002°30'312.0
2017-Nov-05 20:54N 51°38' E 002°27'712.0
2017-Nov-05 20:18N 51°33' E 002°19'412.0
2017-Nov-05 19:59N 51°30' E 002°15'612.0
2017-Nov-05 19:28N 51°24' E 002°11'612.5
2017-Nov-05 19:00N 51°19' E 002°08'612.0
2017-Nov-05 18:30N 51°14' E 002°03'612.8
2017-Nov-05 18:00N 51°11' E 001°54'612.6
2017-Nov-05 17:30N 51°07' E 001°46'612.4
2017-Nov-05 17:00N 51°02' E 001°39'612.2
2017-Nov-05 16:30N 50°58' E 001°33'612.3
2017-Nov-05 16:00N 50°53' E 001°27'712.9
2017-Nov-05 15:28N 50°46' E 001°24'5012.3
2017-Nov-05 11:25N 50°23' E 000°14'513.0
2017-Nov-05 11:00N 50°21' E 000°06'813.1
2017-Nov-05 10:26N 50°18' W 000°05'  

Dump ship's entire track history